METAR Data
IDs: Format: Raw Decoded Include TAF

Data at: 1225 UTC 23 Jun 2021

KERV 231215Z AUTO 14007KT 4SM BR SCT010 SCT014 OVC036 24/22 A3000 RMK AO2 T02360219
KERV 231155Z AUTO 17006KT 5SM BR SCT010 OVC034 23/22 A3000 RMK AO2 T02340216 10247 20226
KERV 231135Z AUTO 15008KT 5SM BR BKN010 BKN014 OVC032 23/22 A2999 RMK AO2 T02340217
KERV 231115Z AUTO 15006KT 7SM BKN010 OVC014 25/23 A2998 RMK AO2 T02460229
KERV 231055Z AUTO 00000KT 7SM BKN010 BKN015 OVC025 23/22 A2998 RMK AO2 T02330216
KERV 231035Z AUTO 17004KT 7SM BKN010 BKN017 OVC024 23/22 A2998 RMK AO2 T02330216
KERV 231015Z AUTO 16005KT 7SM BKN010 BKN014 OVC020 23/22 A2997 RMK AO2 T02330216
KERV 230955Z AUTO 17007KT 7SM OVC010 23/22 A2998 RMK AO2 T02330216
KERV 230935Z AUTO 16005KT 7SM BKN008 OVC012 23/22 A2998 RMK AO2 T02330216
KERV 230915Z AUTO 17008KT 7SM OVC008 23/22 A2997 RMK AO2 T02330216
KERV 230855Z AUTO 16008KT 7SM OVC008 23/22 A2998 RMK AO2 T02330216
KERV 230835Z AUTO 15005KT 7SM OVC010 23/22 A2998 RMK AO2 T02330216

KT82 231215Z AUTO 15003KT 7SM SCT011 BKN022 OVC035 A3001 RMK AO2
KT82 231155Z AUTO 16003KT 7SM SCT023 OVC031 A3001 RMK AO2
KT82 231135Z AUTO 00000KT 7SM BKN025 OVC029 A3000 RMK AO2
KT82 231115Z AUTO 13003KT 7SM SCT013 OVC026 A2999 RMK AO2
KT82 231055Z AUTO 00000KT 7SM SCT013 SCT018 OVC024 A2998 RMK AO2
KT82 231035Z AUTO 00000KT 5SM HZ BKN017 BKN022 A2998 RMK AO2
KT82 231015Z AUTO 00000KT 7SM SCT014 BKN019 A2998 RMK AO2
KT82 230955Z AUTO 00000KT 7SM BKN012 OVC019 A2998 RMK AO2
KT82 230935Z AUTO 18003KT 7SM BKN012 BKN017 A2998 RMK AO2
KT82 230915Z AUTO 18003KT 7SM SCT019 A2997 RMK AO2
KT82 230855Z AUTO 18003KT 7SM BKN017 A2997 RMK AO2
KT82 230835Z AUTO 18003KT 10SM SCT013 SCT018 SCT025 A2998 RMK AO2

KHDO 231221Z AUTO 14008KT 6SM BR BKN005 BKN010 OVC019 25/24 A2997 RMK AO2 T02500239
KHDO 231211Z AUTO 14008KT 5SM BR BKN006 BKN010 OVC017 25/24 A2997 RMK AO2 CIG 003V008 T02500239
KHDO 231151Z AUTO 14006KT 6SM BR OVC004 25/24 A2997 RMK AO2 SLP130 T02500239 10250 20244 53008
KHDO 231051Z AUTO 13007KT 6SM BR OVC004 25/23 A2995 RMK AO2 SLP123 T02500233
KHDO 231007Z AUTO 12004KT 7SM OVC004 25/23 A2994 RMK AO2 T02500233
KHDO 230951Z AUTO 14005KT 8SM BKN006 OVC014 24/23 A2994 RMK AO2 SLP121 T02440233
KHDO 230944Z AUTO 15004KT 8SM BKN006 OVC014 24/23 A2994 RMK AO2 T02440233
KHDO 230906Z AUTO 15005KT 8SM OVC005 25/23 A2994 RMK AO2 T02500233
KHDO 230851Z AUTO 15003KT 10SM OVC006 25/23 A2994 RMK AO2 SLP122 T02500233 56015
KHDO 230828Z AUTO 13004KT 10SM OVC007 24/23 A2994 RMK AO2 T02440228

KCVB 231215Z AUTO 14007KT 4SM BR BKN006 BKN011 OVC021 27/26 A2998 RMK AO2 T02650260
KCVB 231155Z AUTO 00000KT 3SM BR OVC004 26/26 A2998 RMK AO2 T02630260 10263 20250
KCVB 231135Z AUTO 14004KT 2 1/2SM BR OVC004 26/26 A2997 RMK AO2 T02620260
KCVB 231115Z AUTO 12003KT 2 1/2SM BR OVC004 26/26 A2997 RMK AO2 T02600260
KCVB 231055Z AUTO 13004KT 2SM BR OVC004 26/26 A2996 RMK AO2 T02600258
KCVB 231035Z AUTO 13004KT 2 1/2SM BR OVC004 26/26 A2996 RMK AO2 T02580255
KCVB 231015Z AUTO 10003KT 4SM BR OVC004 26/25 A2995 RMK AO2 T02560251
KCVB 230955Z AUTO 00000KT 4SM BR OVC004 25/25 A2995 RMK AO2 LTG DSNT SE T02540249
KCVB 230935Z AUTO 00000KT 4SM BR OVC004 25/25 A2995 RMK AO2 T02530247
KCVB 230915Z AUTO 00000KT 5SM BR SCT006 BKN010 25/25 A2995 RMK AO2 T02520245
KCVB 230855Z AUTO 00000KT 7SM SCT012 26/25 A2995 RMK AO2 T02550246
KCVB 230835Z AUTO 00000KT 5SM BR CLR 26/25 A2996 RMK AO2 T02550246

KJCT 231151Z AUTO 00000KT 6SM BR BKN019 22/20 A3000 RMK AO2 SLP119 T02220200 10256 20217 53006
KJCT 231130Z AUTO 09003KT 8SM SCT023 23/20 A2999 RMK AO2 T02280200
KJCT 231051Z AUTO 10004KT 10SM BKN023 23/21 A2998 RMK AO2 SLP111 T02330206
KJCT 231042Z AUTO 08004KT 9SM BKN022 23/20 A2997 RMK AO2 T02280200
KJCT 230951Z AUTO 00000KT 10SM CLR 24/21 A2997 RMK AO2 SLP110 T02390206
KJCT 230851Z AUTO 00000KT 10SM CLR 24/21 A2998 RMK AO2 SLP111 T02390206 56009